Archival Weather

Chicago O'Hare International

Chicago, Illinois (KORD)

Report from: Wednesday, November 23, 2022 8:51 PM CST
Current time: Monday, July 22, 2024 5:34 AM CDT

Current weather – Weather history – Daily summaries
Weather forecast

Temperature8.3°C (46.9°F)
Wind chill7.2°C (44.9°F)
Dew point3.3°C (37.9°F)
Winds 4 kts (2.1 m/s, 4.6 mph) South (170°)
Visibility10 mi. (16.1 km)
Clouds Ceiling: Overcast 25,000 ft. (7,620 m)
Altimeter30.15 in.Hg (1021 mB)
Relative humidity71 %
Density altitude-965 ft. (-294 m)
Sea-level pressure102.1 kPa (1021 mB, 30.16 in.Hg)
Remarks System requires maintenance
Automated weather observing station with precipitation discriminator
Pressure rising
Flight conditions Visual Meteorological Conditions
Raw dataKORD 240251Z 17004KT 10SM OVC250 08/03 A3015 RMK AO2 SLP214 T00830033 52011 $
An error has occurred. This application may no longer respond until reloaded. Reload 🗙